Time;durP1;ratioP1;P1;durP2;ratioP2;P2;SDS_P1;SDS_P2;PMS_P1;PMS_P2;Temp;Humidity;BMP_temperature;BMP_pressure;BME280_temperature;BME280_humidity;BME280_pressure;Samples;Min_cycle;Max_cycle;Signal;HPM_P1;HPM_P2
2022/04/29 00:01:28;;;;;;;;;;;;;;;;;;5054173;28;19909;-59
2022/04/29 00:03:53;;;;;;;;;;;;;;;;;;5054366;28;19916;-47
2022/04/29 00:06:19;;;;;;;;;;;;;;;;;;5054298;28;19915;-48
2022/04/29 00:08:45;;;;;;;;;;;;;;;;;;5054169;28;19908;-48
2022/04/29 00:11:11;;;;;;;;;;;18.40;90.30;;;;;;5054209;28;19950;-48
2022/04/29 00:13:36;;;;;;;;;;;18.40;90.40;;;;;;5054164;28;19908;-47
2022/04/29 00:16:03;;;;;;;;;;;18.30;88.20;;;;;;5054064;28;19908;-47
2022/04/29 00:18:29;;;;;;;;;;;18.40;90.30;;;;;;5053972;28;20062;-48
2022/04/29 00:20:54;;;;;;;;;;;18.40;90.20;;;;;;5054062;28;20007;-60
2022/04/29 00:23:20;;;;;;;;;;;18.40;86.60;;;;;;5053971;28;19909;-60
2022/04/29 00:25:46;;;;;;;;;;;;;;;;;;5053832;28;19909;-60
2022/04/29 00:28:11;;;;;;;;;;;;;;;;;;5053815;28;19913;-60
2022/04/29 00:30:37;;;;;;;;;;;;;;;;;;5054031;28;19916;-60
2022/04/29 00:33:03;;;;;;;;;;;18.40;90.40;;;;;;5053989;28;19909;-60
2022/04/29 00:35:29;;;;;;;;;;;;;;;;;;5053705;28;19909;-60
2022/04/29 00:37:55;;;;;;;;;;;18.20;90.30;;;;;;5053564;28;19970;-60
2022/04/29 00:40:21;;;;;;;;;;;18.30;90.20;;;;;;5053724;28;19915;-60
2022/04/29 00:42:47;;;;;;;;;;;18.50;90.30;;;;;;5053127;28;19923;-60
2022/04/29 00:45:13;;;;;;;;;;;18.30;90.10;;;;;;5052994;28;19913;-60
2022/04/29 00:47:39;;;;;;;;;;;18.30;90.30;;;;;;5053503;28;19908;-60
2022/04/29 00:50:05;;;;;;;;;;;18.30;90.10;;;;;;5053436;28;19908;-60
2022/04/29 00:52:31;;;;;;;;;;;18.20;90.20;;;;;;5053377;28;19920;-59
2022/04/29 00:54:58;;;;;;;;;;;18.20;90.20;;;;;;5053563;28;19908;-59
2022/04/29 00:57:23;;;;;;;;;;;;;;;;;;5053401;28;20044;-59
2022/04/29 00:59:51;;;;;;;;;;;18.20;90.20;;;;;;5053264;28;20486;-60
2022/04/29 01:02:16;;;;;;;;;;;18.30;90.10;;;;;;5052948;28;19920;-59
2022/04/29 01:04:42;;;;;;;;;;;;;;;;;;5053199;28;20421;-60
2022/04/29 01:07:08;;;;;;;;;;;;;;;;;;5053083;28;20003;-60
2022/04/29 01:09:34;;;;;;;;;;;;;;;;;;5053047;28;19909;-60
2022/04/29 01:12:00;;;;;;;;;;;;;;;;;;5052995;28;19955;-60
2022/04/29 01:14:25;;;;;;;;;;;;;;;;;;5053107;28;20449;-60
2022/04/29 01:16:51;;;;;;;;;;;;;;;;;;5053020;28;19919;-59
2022/04/29 01:19:17;;;;;;;;;;;;;;;;;;5052796;28;19917;-59
2022/04/29 01:21:43;;;;;;;;;;;18.40;88.90;;;;;;5052935;28;19916;-60
2022/04/29 01:24:08;;;;;;;;;;;18.40;90.30;;;;;;5052784;28;19912;-60
2022/04/29 01:26:34;;;;;;;;;;;18.20;90.00;;;;;;5052838;28;19954;-60
2022/04/29 01:29:00;;;;;;;;;;;;;;;;;;5052794;28;19916;-60
2022/04/29 01:31:27;;;;;;;;;;;;;;;;;;5052775;28;20055;-60
2022/04/29 01:33:53;;;;;;;;;;;18.10;90.30;;;;;;5052899;28;19909;-60
2022/04/29 01:36:18;;;;;;;;;;;18.20;90.10;;;;;;5053069;28;19908;-60
2022/04/29 01:38:44;;;;;;;;;;;;;;;;;;5052668;28;19916;-60
2022/04/29 01:41:10;;;;;;;;;;;;;;;;;;5052611;28;20066;-60
2022/04/29 01:43:36;;;;;;;;;;;;;;;;;;5052686;28;19909;-60
2022/04/29 01:46:02;;;;;;;;;;;;;;;;;;5052592;28;20015;-60
2022/04/29 01:48:27;;;;;;;;;;;;;;;;;;5052888;28;19935;-59
2022/04/29 01:50:53;;;;;;;;;;;;;;;;;;5052498;28;19909;-60
2022/04/29 01:53:19;;;;;;;;;;;18.10;90.10;;;;;;5052584;28;19915;-60
2022/04/29 01:55:45;;;;;;;;;;;18.20;90.30;;;;;;5054982;28;19999;-60
2022/04/29 01:58:10;;;;;;;;;;;18.10;90.20;;;;;;5056584;28;20015;-60
2022/04/29 02:00:36;;;;;;;;;;;;;;;;;;5056657;28;19909;-60
2022/04/29 02:03:02;;;;;;;;;;;;;;;;;;5056394;28;19975;-60
2022/04/29 02:05:28;;;;;;;;;;;;;;;;;;5056547;28;20310;-60
2022/04/29 02:07:54;;;;;;;;;;;;;;;;;;5056489;28;19956;-60
2022/04/29 02:10:20;;;;;;;;;;;;;;;;;;5056512;28;19915;-60
2022/04/29 02:12:46;;;;;;;;;;;;;;;;;;5057014;28;19913;-59
2022/04/29 02:15:12;;;;;;;;;;;;;;;;;;5056419;28;19917;-60
2022/04/29 02:17:38;;;;;;;;;;;;;;;;;;5056385;28;20498;-60
2022/04/29 02:20:04;;;;;;;;;;;;;;;;;;5056283;28;19916;-60
2022/04/29 02:22:30;;;;;;;;;;;;;;;;;;5056288;28;19909;-60
2022/04/29 02:24:56;;;;;;;;;;;;;;;;;;5056229;28;19909;-60
2022/04/29 02:27:22;;;;;;;;;;;;;;;;;;5056097;28;19912;-60
2022/04/29 02:29:47;;;;;;;;;;;;;;;;;;5056184;28;19915;-60
2022/04/29 02:32:13;;;;;;;;;;;;;;;;;;5056028;28;19958;-60
2022/04/29 02:34:40;;;;;;;;;;;18.00;90.10;;;;;;5056047;28;19908;-60
2022/04/29 02:37:06;;;;;;;;;;;;;;;;;;5056268;28;19963;-60
2022/04/29 02:39:32;;;;;;;;;;;;;;;;;;5055774;28;19968;-59
2022/04/29 02:41:58;;;;;;;;;;;;;;;;;;5055898;28;19908;-59
2022/04/29 02:44:24;;;;;;;;;;;;;;;;;;5056044;28;19909;-60
2022/04/29 02:47:08;;;;;;;;;;;;;;;;;;5055837;28;19909;-60
2022/04/29 02:49:34;;;;;;;;;;;;;;;;;;5055989;28;19929;-60
2022/04/29 02:52:00;;;;;;;;;;;;;;;;;;5055761;28;19909;-60
2022/04/29 02:54:25;;;;;;;;;;;;;;;;;;5055924;28;19909;-60
2022/04/29 02:56:51;;;;;;;;;;;18.00;90.20;;;;;;5055908;28;19912;-60
2022/04/29 02:59:18;;;;;;;;;;;17.90;90.20;;;;;;5055549;28;19924;-60
2022/04/29 03:01:44;;;;;;;;;;;;;;;;;;5055284;28;19921;-60
2022/04/29 03:04:09;;;;;;;;;;;;;;;;;;5055642;28;19916;-60
2022/04/29 03:06:35;;;;;;;;;;;17.90;90.10;;;;;;5054758;28;19909;-60
2022/04/29 03:09:00;;;;;;;;;;;17.90;90.10;;;;;;5055570;28;20394;-60
2022/04/29 03:11:26;;;;;;;;;;;17.90;87.60;;;;;;5055298;28;19935;-60
2022/04/29 03:13:52;;;;;;;;;;;;;;;;;;5055351;28;19999;-60
2022/04/29 03:16:17;;;;;;;;;;;;;;;;;;5055250;28;19962;-60
2022/04/29 03:18:44;;;;;;;;;;;;;;;;;;5055179;28;19916;-60
2022/04/29 03:21:10;;;;;;;;;;;;;;;;;;5055455;28;20007;-60
2022/04/29 03:23:36;;;;;;;;;;;17.90;86.60;;;;;;5055213;28;20367;-60
2022/04/29 03:26:02;;;;;;;;;;;;;;;;;;5055196;28;19915;-60
2022/04/29 03:28:28;;;;;;;;;;;;;;;;;;5055257;28;19909;-60
2022/04/29 03:30:54;;;;;;;;;;;;;;;;;;5055055;28;19916;-60
2022/04/29 03:33:20;;;;;;;;;;;;;;;;;;5055207;28;19916;-60
2022/04/29 03:35:47;;;;;;;;;;;;;;;;;;5054855;28;20287;-60
2022/04/29 03:38:12;;;;;;;;;;;;;;;;;;5055081;28;20286;-60
2022/04/29 03:40:38;;;;;;;;;;;17.90;88.80;;;;;;5054787;28;20011;-60
2022/04/29 03:43:04;;;;;;;;;;;;;;;;;;5054853;28;20022;-60
2022/04/29 03:45:30;;;;;;;;;;;;;;;;;;5054726;28;19909;-60
2022/04/29 03:47:56;;;;;;;;;;;;;;;;;;5054711;28;19931;-60
2022/04/29 03:50:25;;;;;;;;;;;;;;;;;;5054647;28;19929;-60
2022/04/29 03:52:51;;;;;;;;;;;17.80;90.10;;;;;;5054632;28;19915;-60
2022/04/29 03:55:18;;;;;;;;;;;17.70;89.70;;;;;;5054492;28;19909;-60
2022/04/29 03:57:44;;;;;;;;;;;;;;;;;;5054631;28;19909;-60
2022/04/29 04:00:10;;;;;;;;;;;;;;;;;;5054382;28;19963;-59
2022/04/29 04:02:35;;;;;;;;;;;;;;;;;;5054266;28;19921;-60
2022/04/29 04:05:01;;;;;;;;;;;;;;;;;;5054366;28;19934;-60
2022/04/29 04:07:27;;;;;;;;;;;17.80;90.10;;;;;;5054312;28;20014;-60
2022/04/29 04:09:52;;;;;;;;;;;17.80;90.20;;;;;;5054212;28;19909;-60
2022/04/29 04:12:18;;;;;;;;;;;;;;;;;;5054254;28;20291;-60
2022/04/29 04:14:44;;;;;;;;;;;;;;;;;;5054102;28;19908;-60
2022/04/29 04:17:10;;;;;;;;;;;;;;;;;;5054111;28;19908;-60
2022/04/29 04:19:36;;;;;;;;;;;;;;;;;;5053853;28;19999;-60
2022/04/29 04:22:02;;;;;;;;;;;;;;;;;;5054035;28;19944;-60
2022/04/29 04:24:28;;;;;;;;;;;;;;;;;;5053985;28;19909;-60
2022/04/29 04:26:53;;;;;;;;;;;;;;;;;;5053854;28;20070;-60
2022/04/29 04:29:19;;;;;;;;;;;;;;;;;;5053841;28;20131;-60
2022/04/29 04:31:45;;;;;;;;;;;17.30;89.90;;;;;;5054024;28;19909;-60
2022/04/29 04:36:56;;;;;;;;;;;;;;;;;;5060493;28;19915;-60
2022/04/29 04:39:22;;;;;;;;;;;;;;;;;;5053684;28;19921;-60
2022/04/29 04:41:48;;;;;;;;;;;;;;;;;;5053541;28;20376;-60
2022/04/29 04:44:14;;;;;;;;;;;;;;;;;;5053539;28;19979;-60
2022/04/29 04:46:40;;;;;;;;;;;;;;;;;;5053507;28;19955;-59
2022/04/29 04:49:06;;;;;;;;;;;;;;;;;;5053467;28;20356;-60
2022/04/29 04:51:31;;;;;;;;;;;;;;;;;;5053698;28;19940;-60
2022/04/29 04:53:57;;;;;;;;;;;17.70;90.00;;;;;;5053336;28;20279;-60
2022/04/29 04:56:22;;;;;;;;;;;17.70;90.10;;;;;;5053436;28;19955;-60
2022/04/29 04:58:48;;;;;;;;;;;17.90;87.70;;;;;;5053262;28;19913;-60
2022/04/29 05:01:14;;;;;;;;;;;;;;;;;;5053272;28;20382;-60
2022/04/29 05:03:40;;;;;;;;;;;;;;;;;;5053111;28;19921;-60
2022/04/29 05:06:05;;;;;;;;;;;;;;;;;;5053209;28;19909;-60
2022/04/29 05:08:31;;;;;;;;;;;17.70;90.20;;;;;;5053144;28;19913;-60
2022/04/29 05:10:56;;;;;;;;;;;17.60;90.00;;;;;;5053103;28;20412;-60
2022/04/29 05:13:22;;;;;;;;;;;17.50;87.40;;;;;;5053094;28;20022;-60
2022/04/29 05:15:48;;;;;;;;;;;;;;;;;;5053123;28;19909;-60
2022/04/29 05:18:15;;;;;;;;;;;;;;;;;;5052922;28;20428;-60
2022/04/29 05:20:41;;;;;;;;;;;;;;;;;;5052970;28;19913;-60
2022/04/29 05:23:06;;;;;;;;;;;17.50;89.30;;;;;;5052852;28;19978;-60
2022/04/29 05:25:33;;;;;;;;;;;17.50;86.80;;;;;;5052880;28;19909;-60
2022/04/29 05:27:59;;;;;;;;;;;17.60;90.00;;;;;;5052754;28;20278;-60
2022/04/29 05:30:25;;;;;;;;;;;17.60;90.00;;;;;;5052252;28;20008;-60
2022/04/29 05:32:51;;;;;;;;;;;;;;;;;;5052839;28;19912;-60
2022/04/29 05:35:17;;;;;;;;;;;17.60;89.70;;;;;;5052739;28;19993;-60
2022/04/29 05:37:42;;;;;;;;;;;17.70;90.10;;;;;;5052740;28;19916;-59
2022/04/29 05:42:52;;;;;;;;;;;17.60;90.10;;;;;;5052661;28;19916;-58
2022/04/29 05:45:18;;;;;;;;;;;17.80;86.80;;;;;;5052656;28;19909;-58
2022/04/29 05:47:44;;;;;;;;;;;;;;;;;;5052658;28;19908;-59
2022/04/29 05:50:10;;;;;;;;;;;;;;;;;;5052757;28;19909;-59
2022/04/29 05:52:35;;;;;;;;;;;17.70;90.00;;;;;;5052833;28;19909;-59
2022/04/29 05:55:00;;;;;;;;;;;17.70;86.70;;;;;;5052531;28;19913;-59
2022/04/29 05:57:26;;;;;;;;;;;17.80;86.60;;;;;;5052469;28;19916;-59
2022/04/29 05:59:52;;;;;;;;;;;;;;;;;;5052371;28;20019;-59
2022/04/29 06:02:18;;;;;;;;;;;;;;;;;;5052270;28;19920;-59
2022/04/29 06:04:44;;;;;;;;;;;;;;;;;;5052474;28;20394;-59
2022/04/29 06:07:10;;;;;;;;;;;;;;;;;;5052380;28;19909;-59
2022/04/29 06:09:36;;;;;;;;;;;;;;;;;;5052421;28;19915;-60
2022/04/29 06:12:01;;;;;;;;;;;;;;;;;;5052376;28;19913;-59
2022/04/29 06:14:27;;;;;;;;;;;17.40;89.90;;;;;;5052535;28;20075;-60
2022/04/29 06:16:53;;;;;;;;;;;17.70;89.00;;;;;;5052366;28;19909;-59
2022/04/29 06:19:18;;;;;;;;;;;17.70;89.40;;;;;;5052190;28;19917;-59
2022/04/29 06:21:44;;;;;;;;;;;;;;;;;;5052281;28;19909;-58
2022/04/29 06:24:10;;;;;;;;;;;;;;;;;;5052233;28;19920;-59
2022/04/29 06:26:36;;;;;;;;;;;;;;;;;;5052230;28;19952;-59
2022/04/29 06:29:02;;;;;;;;;;;;;;;;;;5052292;28;19913;-58
2022/04/29 06:31:27;;;;;;;;;;;17.70;90.30;;;;;;5052254;28;19964;-59
2022/04/29 06:33:52;;;;;;;;;;;17.80;90.30;;;;;;5052200;28;19909;-59
2022/04/29 06:47:35;;;;;;;;;;;17.80;90.50;;;;;;5055937;28;20003;-62
2022/04/29 06:50:00;;;;;;;;;;;18.00;90.80;;;;;;5055853;28;19956;-62
2022/04/29 06:52:26;;;;;;;;;;;;;;;;;;5055630;28;19909;-60
2022/04/29 06:54:54;;;;;;;;;;;;;;;;;;5055724;28;19913;-61
2022/04/29 06:57:20;;;;;;;;;;;;;;;;;;5055632;28;19909;-61
2022/04/29 06:59:46;;;;;;;;;;;;;;;;;;5055466;28;19917;-61
2022/04/29 07:02:11;;;;;;;;;;;17.70;90.70;;;;;;5055336;28;19970;-61
2022/04/29 07:04:38;;;;;;;;;;;18.10;90.60;;;;;;5055483;28;19908;-60
2022/04/29 07:07:05;;;;;;;;;;;;;;;;;;5055796;28;19915;-61
2022/04/29 07:09:31;;;;;;;;;;;;;;;;;;5055374;28;19954;-60
2022/04/29 07:11:57;;;;;;;;;;;;;;;;;;5055126;28;20423;-61
2022/04/29 07:14:23;;;;;;;;;;;;;;;;;;5055393;28;19916;-61
2022/04/29 07:16:48;;;;;;;;;;;;;;;;;;5055276;28;19916;-61
2022/04/29 07:19:14;;;;;;;;;;;18.00;88.50;;;;;;5055028;28;19932;-60
2022/04/29 07:21:40;;;;;;;;;;;;;;;;;;5055170;28;19909;-60
2022/04/29 07:24:06;;;;;;;;;;;;;;;;;;5055219;28;20441;-60
2022/04/29 07:26:31;;;;;;;;;;;18.10;90.20;;;;;;5055034;28;19912;-60
2022/04/29 07:28:57;;;;;;;;;;;18.00;90.30;;;;;;5055049;28;19913;-61
2022/04/29 07:31:22;;;;;;;;;;;17.90;90.00;;;;;;5054975;28;19915;-61
2022/04/29 07:33:48;;;;;;;;;;;;;;;;;;5053664;28;20333;-62
2022/04/29 07:41:45;;;;;;;;;;;18.10;90.00;;;;;;5061487;28;19970;-61
2022/04/29 07:44:11;;;;;;;;;;;18.10;90.00;;;;;;5054868;28;19941;-62
2022/04/29 07:46:37;;;;;;;;;;;18.00;90.10;;;;;;5054812;28;20390;-62
2022/04/29 07:49:03;;;;;;;;;;;18.10;90.00;;;;;;5054686;28;19935;-63
2022/04/29 07:51:30;;;;;;;;;;;;;;;;;;5054935;28;19916;-63
2022/04/29 07:53:56;;;;;;;;;;;;;;;;;;5053996;28;19909;-63
2022/04/29 07:56:21;;;;;;;;;;;;;;;;;;5054540;28;20304;-63
2022/04/29 07:58:47;;;;;;;;;;;17.90;90.00;;;;;;5054395;28;19923;-63
2022/04/29 08:01:12;;;;;;;;;;;18.00;90.00;;;;;;5054321;28;19909;-49
2022/04/29 08:03:38;;;;;;;;;;;18.10;87.10;;;;;;5054174;28;19927;-51
2022/04/29 08:06:05;;;;;;;;;;;18.10;87.50;;;;;;5054349;28;19944;-50
2022/04/29 08:08:31;;;;;;;;;;;;;;;;;;5054093;28;19909;-50
2022/04/29 08:10:56;;;;;;;;;;;18.10;90.00;;;;;;5054087;28;19909;-50
2022/04/29 08:13:24;;;;;;;;;;;;;;;;;;5054472;28;19908;-50
2022/04/29 08:15:50;;;;;;;;;;;;;;;;;;5054179;28;19909;-53
2022/04/29 08:18:16;;;;;;;;;;;;;;;;;;5054079;28;19909;-49
2022/04/29 08:20:41;;;;;;;;;;;18.00;90.00;;;;;;5053966;28;19917;-63
2022/04/29 08:23:08;;;;;;;;;;;18.00;90.00;;;;;;5053982;28;19916;-63
2022/04/29 08:25:34;;;;;;;;;;;;;;;;;;5053951;28;19916;-63
2022/04/29 08:28:00;;;;;;;;;;;;;;;;;;5053888;28;19908;-63
2022/04/29 08:30:29;;;;;;;;;;;;;;;;;;5053713;28;19908;-63
2022/04/29 08:32:54;;;;;;;;;;;18.10;89.40;;;;;;5053581;28;20371;-62
2022/04/29 08:35:20;;;;;;;;;;;;;;;;;;5053627;28;19916;-62
2022/04/29 08:37:46;;;;;;;;;;;;;;;;;;5053549;28;19962;-63
2022/04/29 08:40:12;;;;;;;;;;;;;;;;;;5053397;28;20375;-63
2022/04/29 08:42:38;;;;;;;;;;;;;;;;;;5053621;28;19916;-67
2022/04/29 08:45:06;;;;;;;;;;;;;;;;;;5053332;28;19909;-62
2022/04/29 08:47:33;;;;;;;;;;;18.20;89.40;;;;;;5053502;28;20276;-63
2022/04/29 08:49:59;;;;;;;;;;;18.10;90.00;;;;;;5053495;28;19913;-63
2022/04/29 08:52:25;;;;;;;;;;;18.10;89.60;;;;;;5053442;28;19928;-62
2022/04/29 09:00:22;;;;;;;;;;;;;;;;;;5053311;28;20312;-62
2022/04/29 09:02:48;;;;;;;;;;;;;;;;;;5053029;28;20380;-63
2022/04/29 09:05:14;;;;;;;;;;;;;;;;;;5052349;28;19909;-63
2022/04/29 09:07:40;;;;;;;;;;;;;;;;;;5053180;28;20303;-63
2022/04/29 09:10:05;;;;;;;;;;;18.10;86.30;;;;;;5053061;28;20004;-63
2022/04/29 09:12:31;;;;;;;;;;;;;;;;;;5053155;28;19919;-63
2022/04/29 09:14:57;;;;;;;;;;;;;;;;;;5053132;28;19909;-62
2022/04/29 09:17:26;;;;;;;;;;;18.10;87.70;;;;;;5052988;28;19992;-62
2022/04/29 09:19:52;;;;;;;;;;;18.20;86.50;;;;;;5052768;28;19917;-62
2022/04/29 09:22:18;;;;;;;;;;;;;;;;;;5052938;28;19962;-60
2022/04/29 09:24:44;;;;;;;;;;;;;;;;;;5052607;28;19908;-61
2022/04/29 09:27:10;;;;;;;;;;;;;;;;;;5052661;28;20106;-61
2022/04/29 09:29:36;;;;;;;;;;;;;;;;;;5052932;28;20445;-61
2022/04/29 09:32:03;;;;;;;;;;;;;;;;;;5053028;28;19916;-61
2022/04/29 09:34:53;;;;;;;;;;;18.10;89.30;;;;;;5052718;28;19915;-61
2022/04/29 09:37:19;;;;;;;;;;;;;;;;;;5052970;28;20315;-61
2022/04/29 09:39:50;;;;;;;;;;;18.00;89.20;;;;;;5052518;28;20019;-61
2022/04/29 09:42:16;;;;;;;;;;;;;;;;;;5052755;28;20330;-61
2022/04/29 09:44:42;;;;;;;;;;;;;;;;;;5052625;28;19908;-60
2022/04/29 09:47:08;;;;;;;;;;;;;;;;;;5052553;28;19909;-61
2022/04/29 09:49:34;;;;;;;;;;;;;;;;;;5052520;28;19916;-60
2022/04/29 09:52:00;;;;;;;;;;;;;;;;;;5052607;28;19909;-61
2022/04/29 09:54:26;;;;;;;;;;;;;;;;;;5052541;28;20444;-61
2022/04/29 09:56:52;;;;;;;;;;;;;;;;;;5052514;28;19940;-60
2022/04/29 09:59:18;;;;;;;;;;;;;;;;;;5052368;28;19964;-61
2022/04/29 10:01:44;;;;;;;;;;;;;;;;;;5052213;28;20437;-61
2022/04/29 10:04:10;;;;;;;;;;;18.00;89.00;;;;;;5052512;28;19913;-60
2022/04/29 10:06:38;;;;;;;;;;;18.10;87.00;;;;;;5052348;28;19916;-60
2022/04/29 10:09:03;;;;;;;;;;;17.70;86.30;;;;;;5050963;28;20415;-61
2022/04/29 10:11:29;;;;;;;;;;;;;;;;;;5051120;28;19909;-60
2022/04/29 10:13:55;;;;;;;;;;;;;;;;;;5052226;28;20055;-61
2022/04/29 10:16:22;;;;;;;;;;;18.10;89.70;;;;;;5053932;28;19920;-61
2022/04/29 10:21:38;;;;;;;;;;;;;;;;;;5056679;28;19966;-61
2022/04/29 10:24:04;;;;;;;;;;;;;;;;;;5056254;28;19909;-61
2022/04/29 10:26:30;;;;;;;;;;;;;;;;;;5056150;28;19996;-60
2022/04/29 10:28:55;;;;;;;;;;;18.20;89.30;;;;;;5056438;28;19954;-61
2022/04/29 10:31:21;;;;;;;;;;;18.20;89.60;;;;;;5056086;28;19956;-60
2022/04/29 10:33:47;;;;;;;;;;;18.10;89.30;;;;;;5056133;28;20264;-61
2022/04/29 10:36:14;;;;;;;;;;;18.20;89.40;;;;;;5056322;28;19909;-60
2022/04/29 10:38:40;;;;;;;;;;;;;;;;;;5056107;28;19917;-60
2022/04/29 10:41:06;;;;;;;;;;;;;;;;;;5055934;28;19909;-60
2022/04/29 10:43:32;;;;;;;;;;;;;;;;;;5055917;28;19916;-60
2022/04/29 10:45:58;;;;;;;;;;;;;;;;;;5056198;28;19909;-60
2022/04/29 10:48:24;;;;;;;;;;;;;;;;;;5055750;28;19908;-60
2022/04/29 10:50:50;;;;;;;;;;;;;;;;;;5055801;28;19959;-61
2022/04/29 10:53:16;;;;;;;;;;;;;;;;;;5055623;28;19916;-62
2022/04/29 10:55:41;;;;;;;;;;;18.60;88.80;;;;;;5055626;28;19979;-63
2022/04/29 10:58:18;;;;;;;;;;;18.70;89.20;;;;;;5055591;28;19908;-63
2022/04/29 11:00:53;;;;;;;;;;;18.70;88.80;;;;;;5055567;28;19979;-61
2022/04/29 11:03:34;;;;;;;;;;;18.70;89.00;;;;;;5055343;28;19967;-62
2022/04/29 11:06:00;;;;;;;;;;;;;;;;;;5055854;28;19909;-63
2022/04/29 11:08:26;;;;;;;;;;;;;;;;;;5055361;28;20110;-63
2022/04/29 11:10:58;;;;;;;;;;;19.00;88.90;;;;;;5055346;28;20003;-61
2022/04/29 11:13:24;;;;;;;;;;;;;;;;;;5055339;28;19940;-61
2022/04/29 11:15:51;;;;;;;;;;;;;;;;;;5055337;28;19912;-61
2022/04/29 11:18:22;;;;;;;;;;;19.00;85.80;;;;;;5055217;28;19916;-61
2022/04/29 11:20:48;;;;;;;;;;;;;;;;;;5055530;28;19909;-64
2022/04/29 11:26:00;;;;;;;;;;;19.10;88.50;;;;;;5055228;28;19916;-61
2022/04/29 11:28:26;;;;;;;;;;;19.30;88.60;;;;;;5054214;28;20359;-61
2022/04/29 11:30:52;;;;;;;;;;;;;;;;;;5054979;28;20079;-62
2022/04/29 11:33:18;;;;;;;;;;;;;;;;;;5054791;28;19944;-63
2022/04/29 11:35:44;;;;;;;;;;;;;;;;;;5054759;28;19916;-62
2022/04/29 11:38:10;;;;;;;;;;;;;;;;;;5054660;28;20379;-63
2022/04/29 11:40:39;;;;;;;;;;;19.40;88.50;;;;;;5054822;28;19913;-62
2022/04/29 11:43:08;;;;;;;;;;;19.40;88.20;;;;;;5055040;28;19931;-63
2022/04/29 11:45:36;;;;;;;;;;;;;;;;;;5054736;28;20011;-61
2022/04/29 11:48:05;;;;;;;;;;;19.30;86.60;;;;;;5054786;28;19920;-62
2022/04/29 11:50:31;;;;;;;;;;;19.60;88.30;;;;;;5054865;28;19909;-62
2022/04/29 11:53:07;;;;;;;;;;;19.60;88.10;;;;;;5054600;28;19909;-63
2022/04/29 11:55:33;;;;;;;;;;;19.60;88.30;;;;;;5054479;28;19989;-62
2022/04/29 11:57:59;;;;;;;;;;;19.50;88.50;;;;;;5054530;28;19940;-61
2022/04/29 12:00:25;;;;;;;;;;;;;;;;;;5054513;28;19924;-62
2022/04/29 12:02:51;;;;;;;;;;;19.50;88.70;;;;;;5054220;28;19920;-62
2022/04/29 12:05:16;;;;;;;;;;;19.50;88.50;;;;;;5054505;28;20386;-62
2022/04/29 12:07:42;;;;;;;;;;;;;;;;;;5054321;28;19916;-62
2022/04/29 12:10:08;;;;;;;;;;;;;;;;;;5054547;28;19992;-63
2022/04/29 12:12:34;;;;;;;;;;;;;;;;;;5054182;28;20007;-62
2022/04/29 12:15:00;;;;;;;;;;;;;;;;;;5054469;28;19916;-63
2022/04/29 12:17:26;;;;;;;;;;;;;;;;;;5054173;28;19908;-62
2022/04/29 12:19:52;;;;;;;;;;;;;;;;;;5054079;28;19928;-50
2022/04/29 12:22:18;;;;;;;;;;;;;;;;;;5054021;28;20260;-48
2022/04/29 12:24:45;;;;;;;;;;;;;;;;;;5053962;28;19964;-47
2022/04/29 12:27:10;;;;;;;;;;;19.60;87.60;;;;;;5052545;28;19909;-46
2022/04/29 12:29:39;;;;;;;;;;;19.60;84.70;;;;;;5053843;28;20398;-47
2022/04/29 12:35:05;;;;;;;;;;;19.60;89.10;;;;;;5054105;28;19963;-49
2022/04/29 12:37:30;;;;;;;;;;;;;;;;;;5053818;28;19916;-48
2022/04/29 12:40:03;;;;;;;;;;;19.60;85.00;;;;;;5053490;28;19917;-49
2022/04/29 12:42:28;;;;;;;;;;;19.50;87.50;;;;;;5053690;28;19959;-47
2022/04/29 12:45:08;;;;;;;;;;;;;;;;;;5053595;28;19951;-48
2022/04/29 12:47:34;;;;;;;;;;;;;;;;;;5053922;28;20008;-48
2022/04/29 12:50:19;;;;;;;;;;;19.50;88.20;;;;;;5053440;28;20347;-49
2022/04/29 12:52:48;;;;;;;;;;;19.50;88.00;;;;;;5053686;28;19909;-49
2022/04/29 12:55:14;;;;;;;;;;;;;;;;;;5053643;28;19955;-47
2022/04/29 12:57:40;;;;;;;;;;;;;;;;;;5053373;28;19955;-48
2022/04/29 13:00:08;;;;;;;;;;;19.50;88.40;;;;;;5053179;28;19924;-48
2022/04/29 13:02:33;;;;;;;;;;;19.50;88.50;;;;;;5053051;28;20302;-47
2022/04/29 13:04:59;;;;;;;;;;;19.60;88.20;;;;;;5053227;28;19909;-48
2022/04/29 13:07:25;;;;;;;;;;;19.60;86.70;;;;;;5053184;28;19996;-48
2022/04/29 13:09:51;;;;;;;;;;;19.60;88.00;;;;;;5053173;28;20437;-46
2022/04/29 13:12:17;;;;;;;;;;;19.60;84.30;;;;;;5053173;28;19913;-46
2022/04/29 13:14:43;;;;;;;;;;;;;;;;;;5051699;28;19920;-46
2022/04/29 13:17:09;;;;;;;;;;;;;;;;;;5052894;28;19995;-47
2022/04/29 13:19:37;;;;;;;;;;;;;;;;;;5052905;28;19924;-46
2022/04/29 13:22:02;;;;;;;;;;;19.70;87.60;;;;;;5053221;28;19909;-46
2022/04/29 13:24:28;;;;;;;;;;;;;;;;;;5052937;28;20286;-46
2022/04/29 13:26:54;;;;;;;;;;;;;;;;;;5052699;28;19916;-47
2022/04/29 13:29:20;;;;;;;;;;;;;;;;;;5053073;28;19909;-47
2022/04/29 13:31:46;;;;;;;;;;;;;;;;;;5052900;28;19913;-47
2022/04/29 13:34:12;;;;;;;;;;;;;;;;;;5052958;28;19913;-47
2022/04/29 13:36:38;;;;;;;;;;;;;;;;;;5052652;28;19909;-46
2022/04/29 13:39:03;;;;;;;;;;;;;;;;;;5052573;28;19986;-47
2022/04/29 13:41:29;;;;;;;;;;;19.60;87.80;;;;;;5052633;28;20007;-46
2022/04/29 13:43:54;;;;;;;;;;;19.60;88.10;;;;;;5052884;28;19909;-47
2022/04/29 13:46:21;;;;;;;;;;;;;;;;;;5052498;28;19913;-46
2022/04/29 13:48:46;;;;;;;;;;;19.60;87.00;;;;;;5052572;28;20003;-47
2022/04/29 13:51:12;;;;;;;;;;;;;;;;;;5052043;28;19962;-46
2022/04/29 13:53:38;;;;;;;;;;;;;;;;;;5052782;28;19909;-46
2022/04/29 13:56:05;;;;;;;;;;;;;;;;;;5052507;28;19963;-47
2022/04/29 13:58:30;;;;;;;;;;;19.60;85.00;;;;;;5052627;28;19916;-49
2022/04/29 14:00:56;;;;;;;;;;;;;;;;;;5052356;28;20299;-48
2022/04/29 14:03:22;;;;;;;;;;;;;;;;;;5052221;28;19925;-48
2022/04/29 14:05:48;;;;;;;;;;;;;;;;;;5052462;28;20017;-50
2022/04/29 14:08:14;;;;;;;;;;;;;;;;;;5052440;28;20367;-48
2022/04/29 14:10:39;;;;;;;;;;;19.60;88.10;;;;;;5052359;28;19909;-48
2022/04/29 14:13:08;;;;;;;;;;;19.60;87.80;;;;;;5052583;28;19916;-50
2022/04/29 14:15:34;;;;;;;;;;;;;;;;;;5052536;28;19909;-49
2022/04/29 14:17:59;;;;;;;;;;;19.60;87.70;;;;;;5052303;28;19963;-49
2022/04/29 14:20:25;;;;;;;;;;;19.50;87.70;;;;;;5052231;28;19917;-47
2022/04/29 14:22:50;;;;;;;;;;;19.60;87.90;;;;;;5052305;28;19935;-47
2022/04/29 14:25:16;;;;;;;;;;;;;;;;;;5052205;28;19909;-48
2022/04/29 14:27:42;;;;;;;;;;;;;;;;;;5052314;28;19967;-48
2022/04/29 14:30:08;;;;;;;;;;;;;;;;;;5052150;28;19956;-49
2022/04/29 14:32:34;;;;;;;;;;;;;;;;;;5052138;28;19963;-49
2022/04/29 14:35:00;;;;;;;;;;;;;;;;;;5051684;28;20485;-48
2022/04/29 14:37:26;;;;;;;;;;;;;;;;;;5052001;28;19920;-48
2022/04/29 14:39:53;;;;;;;;;;;;;;;;;;5052021;28;20019;-48
2022/04/29 14:42:19;;;;;;;;;;;19.50;87.60;;;;;;5052262;28;19908;-49
2022/04/29 14:44:44;;;;;;;;;;;19.60;87.70;;;;;;5052410;28;19909;-48
2022/04/29 14:47:10;;;;;;;;;;;;;;;;;;5052114;28;19916;-49
2022/04/29 14:49:36;;;;;;;;;;;;;;;;;;5052003;28;19916;-48
2022/04/29 14:52:02;;;;;;;;;;;;;;;;;;5052037;28;20015;-49
2022/04/29 14:54:28;;;;;;;;;;;;;;;;;;5051946;28;20453;-48
2022/04/29 14:56:54;;;;;;;;;;;;;;;;;;5051851;28;19962;-48
2022/04/29 14:59:20;;;;;;;;;;;19.60;87.40;;;;;;5051724;28;19912;-50
2022/04/29 15:01:46;;;;;;;;;;;;;;;;;;5051607;28;20473;-47
2022/04/29 15:04:13;;;;;;;;;;;;;;;;;;5054727;28;19959;-47
2022/04/29 15:06:39;;;;;;;;;;;19.60;87.30;;;;;;5055532;28;19944;-59
2022/04/29 15:17:23;;;;;;;;;;;19.60;87.20;;;;;;5055604;28;19916;-58
2022/04/29 15:19:49;;;;;;;;;;;19.60;86.80;;;;;;5055095;28;20363;-59
2022/04/29 15:22:15;;;;;;;;;;;;;;;;;;5055197;28;19937;-56
2022/04/29 15:24:40;;;;;;;;;;;19.60;87.10;;;;;;5055199;28;19955;-57
2022/04/29 15:27:06;;;;;;;;;;;;;;;;;;5055057;28;20363;-57
2022/04/29 15:29:32;;;;;;;;;;;;;;;;;;5054954;28;19920;-57
2022/04/29 15:31:58;;;;;;;;;;;;;;;;;;5054822;28;20395;-57
2022/04/29 15:34:24;;;;;;;;;;;;;;;;;;5054850;28;19909;-57
2022/04/29 15:36:50;;;;;;;;;;;19.60;87.30;;;;;;5054765;28;19909;-57
2022/04/29 15:39:15;;;;;;;;;;;19.50;86.90;;;;;;5054656;28;19924;-56
2022/04/29 15:41:42;;;;;;;;;;;19.60;87.20;;;;;;5054801;28;19959;-57
2022/04/29 15:44:08;;;;;;;;;;;;;;;;;;5054924;28;19909;-57
2022/04/29 15:46:34;;;;;;;;;;;;;;;;;;5054534;28;19932;-56
2022/04/29 15:49:00;;;;;;;;;;;19.70;87.30;;;;;;5054558;28;19909;-56
2022/04/29 15:51:25;;;;;;;;;;;19.50;87.00;;;;;;5054515;28;19944;-56
2022/04/29 15:53:51;;;;;;;;;;;19.50;87.30;;;;;;5054796;28;19913;-57
2022/04/29 15:56:16;;;;;;;;;;;;;;;;;;5054435;28;20375;-57
2022/04/29 15:58:44;;;;;;;;;;;;;;;;;;5054325;28;20015;-57
2022/04/29 16:01:10;;;;;;;;;;;;;;;;;;5054370;28;19962;-57
2022/04/29 16:03:36;;;;;;;;;;;;;;;;;;5054079;28;19921;-57
2022/04/29 16:06:02;;;;;;;;;;;;;;;;;;5054290;28;19923;-56
2022/04/29 16:08:28;;;;;;;;;;;19.40;87.00;;;;;;5054125;28;19909;-57
2022/04/29 16:10:54;;;;;;;;;;;;;;;;;;5054077;28;19909;-56
2022/04/29 16:13:20;;;;;;;;;;;;;;;;;;5053696;28;20011;-57
2022/04/29 16:15:46;;;;;;;;;;;;;;;;;;5054002;28;19915;-56
2022/04/29 16:20:56;;;;;;;;;;;;;;;;;;5060960;28;20016;-56
2022/04/29 16:26:06;;;;;;;;;;;19.40;87.50;;;;;;5054076;28;19961;-57